Terminal Aerodrome Forecast
Issued by NWS Los Angeles, CA

Home | Current Version | Previous Version | Text Only | Print | Product List | Glossary On
Versions: 1 2 3 4 5 6 7 8 9 10 11 12 13 14 15 16 17 18 19 20 21 22 23 24 25 26
000
FTUS46 KLOX 181700
TAFSMX
TAF
KSMX 181731Z 1818/1918 26005KT P6SM SCT018 BKN025
     FM181900 30007KT P6SM SCT025
     FM182100 30012KT P6SM SKC
     FM190200 30007KT P6SM BKN015
     FM190600 VRB03KT P6SM OVC012
     FM191000 VRB03KT P6SM BKN007 OVC012=

USA.gov is the U.S. government's official web portal to all federal, state and local government web resources and services.